Time;durP1;ratioP1;P1;durP2;ratioP2;P2;SDS_P1;SDS_P2;PMS_P1;PMS_P2;Temp;Humidity;BMP_temperature;BMP_pressure;BME280_temperature;BME280_humidity;BME280_pressure;Samples;Min_cycle;Max_cycle;Signal;HPM_P1;HPM_P2
2022/10/24 00:01:47;;;;;;;;;;;;;;;10.68;94.50;100513.35;85897;1294;88436;-58
2022/10/24 00:03:58;;;;;;;;;;;;;;;10.74;94.77;100516.75;85901;1295;92084;-58
2022/10/24 00:06:09;;;;;;;;;;;;;;;10.79;94.79;100520.77;85895;1294;80594;-58
2022/10/24 00:08:16;;;;;;;;;;;;;;;10.80;94.79;100518.87;85907;1295;81556;-58
2022/10/24 00:10:26;;;;;;;;;;;;;;;10.81;94.67;100519.76;85865;1295;100114;-58
2022/10/24 00:12:35;;;;;;;;;;;;;;;10.83;94.68;100519.14;85892;1300;88018;-58
2022/10/24 00:14:43;;;;;;;;;;;;;;;10.84;94.83;100522.30;85840;1295;94930;-58
2022/10/24 00:16:50;;;;;;;;;;;;;;;10.85;94.79;100523.40;85860;1295;82416;-58
2022/10/24 00:19:00;;;;;;;;;;;;;;;10.88;94.80;100523.09;85867;1300;82529;-57
2022/10/24 00:21:10;;;;;;;;;;;;;;;10.90;94.86;100519.91;85886;1294;99290;-58
2022/10/24 00:23:17;;;;;;;;;;;;;;;10.95;94.89;100524.23;85903;1295;87571;-58
2022/10/24 00:25:24;;;;;;;;;;;;;;;10.97;94.90;100524.04;85854;1301;94246;-57
2022/10/24 00:27:33;;;;;;;;;;;;;;;10.99;94.93;100525.69;85935;1300;81769;-59
2022/10/24 00:29:41;;;;;;;;;;;;;;;10.99;94.89;100533.55;85885;1295;82486;-59
2022/10/24 00:31:47;;;;;;;;;;;;;;;11.00;94.81;100534.42;85911;1294;99951;-58
2022/10/24 00:33:59;;;;;;;;;;;;;;;11.00;94.77;100534.55;85970;1297;88205;-58
2022/10/24 00:36:12;;;;;;;;;;;;;;;11.01;94.68;100534.42;85931;1294;93672;-56
2022/10/24 00:38:20;;;;;;;;;;;;;;;11.02;94.72;100536.63;85875;1302;83782;-58
2022/10/24 00:40:31;;;;;;;;;;;;;;;11.01;94.77;100535.46;85885;1301;83621;-57
2022/10/24 00:42:38;;;;;;;;;;;;;;;11.03;94.85;100534.55;85921;1301;98378;-57
2022/10/24 00:44:46;;;;;;;;;;;;;;;11.05;94.81;100526.02;85877;1294;87532;-56
2022/10/24 00:46:59;;;;;;;;;;;;;;;11.08;94.74;100520.19;85860;1300;94040;-58
2022/10/24 00:49:12;;;;;;;;;;;;;;;11.03;94.62;100518.05;85866;1294;81226;-58
2022/10/24 00:51:23;;;;;;;;;;;;;;;11.01;94.55;100522.98;85861;1300;80638;-59
2022/10/24 00:53:32;;;;;;;;;;;;;;;11.01;94.84;100520.86;85820;1301;97975;-58
2022/10/24 00:55:42;;;;;;;;;;;;;;;11.04;95.14;100511.41;85845;1294;88809;-59
2022/10/24 00:57:52;;;;;;;;;;;;;;;11.08;95.25;100504.02;85855;1300;93847;-57
2022/10/24 01:00:04;;;;;;;;;;;;;;;11.09;95.31;100500.09;85872;1294;80496;-58
2022/10/24 01:02:12;;;;;;;;;;;;;;;11.10;95.06;100499.96;85880;1294;82577;-58
2022/10/24 01:04:19;;;;;;;;;;;;;;;11.08;95.01;100496.45;85837;1296;99533;-58
2022/10/24 01:06:46;;;;;;;;;;;;;;;11.07;95.09;100495.40;85863;1294;88999;-58
2022/10/24 01:09:02;;;;;;;;;;;;;;;11.10;95.04;100493.06;85843;1294;93684;-57
2022/10/24 01:11:16;;;;;;;;;;;;;;;11.11;95.11;100488.12;85879;1294;81136;-58
2022/10/24 01:13:33;;;;;;;;;;;;;;;11.10;95.24;100488.19;85900;1300;82914;-57
2022/10/24 01:15:46;;;;;;;;;;;;;;;11.11;95.11;100491.36;85812;1295;98237;-59
2022/10/24 01:18:00;;;;;;;;;;;;;;;11.11;95.12;100488.99;85904;1294;89185;-58
2022/10/24 01:20:36;;;;;;;;;;;;;;;11.09;95.16;100482.52;85882;1294;96199;-58
2022/10/24 01:22:54;;;;;;;;;;;;;;;11.11;95.04;100483.92;85917;1301;82881;-57
2022/10/24 01:25:10;;;;;;;;;;;;;;;11.12;95.11;100472.98;85889;1294;81845;-57
2022/10/24 01:27:53;;;;;;;;;;;;;;;11.09;95.11;100475.88;85931;1301;98391;-58
2022/10/24 01:30:05;;;;;;;;;;;;;;;11.10;95.34;100466.73;85751;1300;88479;-57
2022/10/24 01:32:16;;;;;;;;;;;;;;;11.09;95.24;100464.38;85896;1295;94725;-57
2022/10/24 01:34:27;;;;;;;;;;;;;;;11.12;95.20;100464.03;85872;1290;81569;-58
2022/10/24 01:36:37;;;;;;;;;;;;;;;11.14;95.21;100461.98;85940;1294;82199;-57
2022/10/24 01:38:48;;;;;;;;;;;;;;;11.16;95.26;100460.39;85881;1297;99726;-57
2022/10/24 01:40:58;;;;;;;;;;;;;;;11.19;95.16;100460.55;85875;1294;89022;-58
2022/10/24 01:43:09;;;;;;;;;;;;;;;11.17;94.92;100462.77;85881;1300;95861;-58
2022/10/24 01:45:24;;;;;;;;;;;;;;;11.13;95.01;100467.39;85825;1294;80608;-57
2022/10/24 01:47:39;;;;;;;;;;;;;;;11.12;95.15;100467.38;85913;1294;79518;-57
2022/10/24 01:49:52;;;;;;;;;;;;;;;11.07;94.93;100469.70;85829;1294;98638;-59
2022/10/24 01:52:03;;;;;;;;;;;;;;;11.07;94.89;100465.70;85874;1301;87712;-58
2022/10/24 01:54:11;;;;;;;;;;;;;;;11.05;94.78;100453.94;85846;1301;95210;-57
2022/10/24 01:56:18;;;;;;;;;;;;;;;11.02;94.78;100452.59;85876;1294;82379;-57
2022/10/24 01:58:26;;;;;;;;;;;;;;;10.98;94.83;100455.95;85798;1294;83363;-58
2022/10/24 02:00:35;;;;;;;;;;;;;;;10.96;94.90;100447.97;85859;1294;98968;-58
2022/10/24 02:02:45;;;;;;;;;;;;;;;10.97;94.87;100436.67;85880;1295;88901;-58
2022/10/24 02:04:56;;;;;;;;;;;;;;;10.98;94.84;100426.67;85887;1301;95460;-58
2022/10/24 02:07:07;;;;;;;;;;;;;;;10.95;94.95;100423.23;85883;1293;80938;-57
2022/10/24 02:09:19;;;;;;;;;;;;;;;10.91;94.95;100419.80;85879;1294;84084;-57
2022/10/24 02:11:27;;;;;;;;;;;;;;;10.93;94.94;100410.30;85945;1294;99410;-58
2022/10/24 02:13:41;;;;;;;;;;;;;;;10.94;94.95;100402.66;85934;1292;88866;-58
2022/10/24 02:15:50;;;;;;;;;;;;;;;10.94;94.96;100404.80;85912;1294;95959;-57
2022/10/24 02:17:58;;;;;;;;;;;;;;;10.96;95.03;100402.90;85934;1294;81024;-58
2022/10/24 02:20:09;;;;;;;;;;;;;;;10.96;95.08;100401.06;85908;1294;80180;-59
2022/10/24 02:22:26;;;;;;;;;;;;;;;10.98;95.23;100399.93;85880;1294;99679;-56
2022/10/24 02:24:37;;;;;;;;;;;;;;;10.99;95.17;100400.16;85886;1294;87923;-57
2022/10/24 02:26:48;;;;;;;;;;;;;;;10.98;95.12;100399.02;85871;1301;94072;-58
2022/10/24 02:28:58;;;;;;;;;;;;;;;10.99;95.13;100403.39;85874;1301;81106;-58
2022/10/24 02:31:10;;;;;;;;;;;;;;;10.96;95.09;100405.14;85895;1301;82830;-58
2022/10/24 02:33:19;;;;;;;;;;;;;;;10.95;95.10;100405.27;85862;1293;98286;-58
2022/10/24 02:35:29;;;;;;;;;;;;;;;10.90;94.99;100403.63;85895;1293;87014;-58
2022/10/24 02:37:42;;;;;;;;;;;;;;;10.88;95.09;100402.72;85864;1301;94799;-58
2022/10/24 02:39:50;;;;;;;;;;;;;;;10.86;94.99;100408.28;85842;1301;80684;-57
2022/10/24 02:41:58;;;;;;;;;;;;;;;10.86;95.00;100407.95;85874;1294;82191;-57
2022/10/24 02:44:09;;;;;;;;;;;;;;;10.85;95.05;100410.67;85883;1298;99227;-58
2022/10/24 02:46:19;;;;;;;;;;;;;;;10.82;95.09;100412.32;85910;1300;87466;-57
2022/10/24 02:48:29;;;;;;;;;;;;;;;10.82;95.31;100411.03;85897;1301;95725;-58
2022/10/24 02:50:38;;;;;;;;;;;;;;;10.82;95.20;100411.48;85906;1302;79994;-58
2022/10/24 02:52:46;;;;;;;;;;;;;;;10.81;95.37;100409.52;85930;1294;82410;-57
2022/10/24 02:54:53;;;;;;;;;;;;;;;10.81;95.36;100407.60;85918;1298;97001;-57
2022/10/24 02:57:04;;;;;;;;;;;;;;;10.81;95.35;100403.98;85933;1302;88652;-58
2022/10/24 02:59:12;;;;;;;;;;;;;;;10.80;95.48;100405.27;85890;1295;94022;-57
2022/10/24 03:01:19;;;;;;;;;;;;;;;10.80;95.37;100398.89;85920;1301;80773;-58
2022/10/24 03:03:26;;;;;;;;;;;;;;;10.79;95.34;100395.92;85898;1293;82961;-58
2022/10/24 03:05:33;;;;;;;;;;;;;;;10.78;95.54;100393.05;85911;1294;99419;-58
2022/10/24 03:07:40;;;;;;;;;;;;;;;10.73;95.64;100383.21;85871;1294;88508;-58
2022/10/24 03:09:48;;;;;;;;;;;;;;;10.71;95.70;100388.45;85875;1301;95011;-58
2022/10/24 03:11:55;;;;;;;;;;;;;;;10.70;95.59;100388.06;85854;1294;80729;-58
2022/10/24 03:14:04;;;;;;;;;;;;;;;10.69;95.58;100390.66;85865;1301;82786;-58
2022/10/24 03:16:14;;;;;;;;;;;;;;;10.68;95.56;100389.74;85906;1294;99871;-58
2022/10/24 03:18:22;;;;;;;;;;;;;;;10.63;95.45;100390.85;85844;1293;87520;-59
2022/10/24 03:20:30;;;;;;;;;;;;;;;10.62;95.39;100387.35;85866;1298;95247;-60
2022/10/24 03:22:39;;;;;;;;;;;;;;;10.59;95.40;100382.70;85854;1288;80418;-58
2022/10/24 03:24:47;;;;;;;;;;;;;;;10.58;95.65;100379.23;85839;1300;80542;-57
2022/10/24 03:26:54;;;;;;;;;;;;;;;10.57;95.50;100378.15;85858;1294;97886;-58
2022/10/24 03:29:01;;;;;;;;;;;;;;;10.55;95.58;100374.83;85907;1293;89096;-58
2022/10/24 03:31:12;;;;;;;;;;;;;;;10.55;95.58;100377.31;85849;1294;95048;-57
2022/10/24 03:33:20;;;;;;;;;;;;;;;10.55;95.50;100379.82;85844;1298;82580;-58
2022/10/24 03:35:26;;;;;;;;;;;;;;;10.53;95.55;100372.73;85861;1301;82458;-59
2022/10/24 03:37:33;;;;;;;;;;;;;;;10.51;95.53;100372.08;85860;1302;99203;-57
2022/10/24 03:39:40;;;;;;;;;;;;;;;10.53;95.60;100373.64;85873;1294;87589;-57
2022/10/24 03:41:48;;;;;;;;;;;;;;;10.52;95.47;100370.08;85920;1286;95409;-58
2022/10/24 03:43:56;;;;;;;;;;;;;;;10.51;95.48;100366.27;85903;1298;79783;-57
2022/10/24 03:46:02;;;;;;;;;;;;;;;10.53;95.44;100365.84;85939;1294;82151;-58
2022/10/24 03:48:10;;;;;;;;;;;;;;;10.54;95.52;100364.94;85909;1294;99356;-57
2022/10/24 03:50:19;;;;;;;;;;;;;;;10.56;95.64;100364.75;85867;1301;88748;-57
2022/10/24 03:52:27;;;;;;;;;;;;;;;10.57;95.57;100360.61;85837;1294;94301;-58
2022/10/24 03:54:34;;;;;;;;;;;;;;;10.57;95.56;100361.95;85872;1294;81858;-58
2022/10/24 03:56:41;;;;;;;;;;;;;;;10.55;95.39;100360.23;85887;1301;81780;-58
2022/10/24 03:58:48;;;;;;;;;;;;;;;10.54;95.50;100358.16;85857;1294;98087;-58
2022/10/24 04:00:58;;;;;;;;;;;;;;;10.54;95.63;100353.67;85852;1294;87409;-58
2022/10/24 04:03:06;;;;;;;;;;;;;;;10.55;95.72;100357.17;85878;1301;94307;-58
2022/10/24 04:05:14;;;;;;;;;;;;;;;10.56;95.68;100359.92;85846;1300;81154;-58
2022/10/24 04:07:21;;;;;;;;;;;;;;;10.58;95.68;100358.05;85874;1301;80741;-58
2022/10/24 04:09:31;;;;;;;;;;;;;;;10.62;95.58;100357.88;85856;1294;96990;-59
2022/10/24 04:11:38;;;;;;;;;;;;;;;10.63;95.63;100356.06;85907;1296;86166;-58
2022/10/24 04:13:47;;;;;;;;;;;;;;;10.63;95.64;100351.10;85847;1301;94514;-58
2022/10/24 04:15:54;;;;;;;;;;;;;;;10.61;95.71;100347.73;85841;1294;82000;-57
2022/10/24 04:18:04;;;;;;;;;;;;;;;10.62;95.76;100345.04;85892;1294;80608;-58
2022/10/24 04:20:18;;;;;;;;;;;;;;;10.65;95.73;100341.99;85860;1294;96562;-58
2022/10/24 04:22:26;;;;;;;;;;;;;;;10.66;95.65;100340.42;85900;1294;89416;-57
2022/10/24 04:24:33;;;;;;;;;;;;;;;10.67;95.75;100335.23;85878;1294;95695;-58
2022/10/24 04:26:40;;;;;;;;;;;;;;;10.69;95.54;100336.34;85902;1301;81934;-58
2022/10/24 04:28:48;;;;;;;;;;;;;;;10.69;95.47;100333.64;85909;1294;82380;-58
2022/10/24 04:31:00;;;;;;;;;;;;;;;10.69;95.54;100330.69;85845;1300;99313;-58
2022/10/24 04:33:07;;;;;;;;;;;;;;;10.70;95.46;100320.01;85871;1294;87724;-57
2022/10/24 04:35:15;;;;;;;;;;;;;;;10.71;95.51;100317.20;85907;1300;92807;-58
2022/10/24 04:37:22;;;;;;;;;;;;;;;10.71;95.60;100316.82;85892;1294;82246;-58
2022/10/24 04:39:30;;;;;;;;;;;;;;;10.72;95.76;100310.14;85871;1294;82823;-57
2022/10/24 04:41:38;;;;;;;;;;;;;;;10.76;95.65;100302.46;85880;1301;99744;-58
2022/10/24 04:43:45;;;;;;;;;;;;;;;10.76;95.62;100296.48;85872;1301;88742;-58
2022/10/24 04:45:52;;;;;;;;;;;;;;;10.77;95.61;100292.65;85869;1292;95613;-57
2022/10/24 04:48:01;;;;;;;;;;;;;;;10.76;95.69;100290.53;85861;1294;80474;-57
2022/10/24 04:50:10;;;;;;;;;;;;;;;10.76;95.80;100284.92;85539;1294;515841;-57
2022/10/24 04:52:17;;;;;;;;;;;;;;;10.80;95.66;100283.38;85883;1292;98142;-56
2022/10/24 04:54:25;;;;;;;;;;;;;;;10.81;95.70;100280.15;85865;1293;87174;-58
2022/10/24 04:56:32;;;;;;;;;;;;;;;10.82;95.58;100273.05;85831;1294;95956;-57
2022/10/24 04:58:38;;;;;;;;;;;;;;;10.82;95.73;100275.54;85866;1294;81069;-58
2022/10/24 05:00:48;;;;;;;;;;;;;;;10.81;95.76;100270.30;85858;1295;81225;-58
2022/10/24 05:02:56;;;;;;;;;;;;;;;10.82;95.71;100273.38;85885;1294;99061;-57
2022/10/24 05:05:03;;;;;;;;;;;;;;;10.81;95.69;100273.48;85889;1300;88944;-58
2022/10/24 05:07:10;;;;;;;;;;;;;;;10.83;95.68;100272.54;85880;1295;93860;-58
2022/10/24 05:09:18;;;;;;;;;;;;;;;10.84;95.65;100267.69;85895;1301;81472;-59
2022/10/24 05:11:25;;;;;;;;;;;;;;;10.87;95.63;100262.85;85896;1279;82108;-58
2022/10/24 05:13:33;;;;;;;;;;;;;;;10.87;95.59;100267.73;85907;1294;97656;-58
2022/10/24 05:15:42;;;;;;;;;;;;;;;10.88;95.48;100267.17;85940;1294;87742;-58
2022/10/24 05:17:49;;;;;;;;;;;;;;;10.86;95.50;100259.48;85890;1294;95006;-58
2022/10/24 05:19:56;;;;;;;;;;;;;;;10.88;95.46;100250.05;85873;1301;80831;-57
2022/10/24 05:22:07;;;;;;;;;;;;;;;10.90;95.45;100252.66;85920;1293;82903;-59
2022/10/24 05:24:13;;;;;;;;;;;;;;;10.93;95.56;100247.89;85871;1301;98499;-58
2022/10/24 05:26:21;;;;;;;;;;;;;;;10.95;95.71;100248.66;85877;1291;87440;-58
2022/10/24 05:28:29;;;;;;;;;;;;;;;10.97;95.57;100246.39;85890;1294;95732;-58
2022/10/24 05:30:36;;;;;;;;;;;;;;;10.97;95.61;100250.14;85861;1301;80748;-58
2022/10/24 05:32:43;;;;;;;;;;;;;;;10.98;95.55;100251.61;85858;1294;81482;-59
2022/10/24 05:34:50;;;;;;;;;;;;;;;11.00;95.46;100251.75;85821;1294;99968;-58
2022/10/24 05:36:57;;;;;;;;;;;;;;;11.01;95.52;100259.91;85879;1294;89370;-58
2022/10/24 05:39:06;;;;;;;;;;;;;;;11.04;95.46;100272.11;85864;1294;92781;-59
2022/10/24 05:41:13;;;;;;;;;;;;;;;11.06;95.30;100280.03;85854;1294;81599;-57
2022/10/24 05:43:19;;;;;;;;;;;;;;;11.09;95.30;100284.46;85869;1294;80410;-57
2022/10/24 05:45:26;;;;;;;;;;;;;;;11.13;95.23;100282.70;85868;1301;100226;-58
2022/10/24 05:47:33;;;;;;;;;;;;;;;11.14;95.39;100277.52;85914;1294;87927;-58
2022/10/24 05:49:40;;;;;;;;;;;;;;;11.17;95.17;100274.76;85903;1301;94553;-58
2022/10/24 05:51:47;;;;;;;;;;;;;;;11.20;95.31;100266.84;85891;1301;80996;-58
2022/10/24 05:53:57;;;;;;;;;;;;;;;11.23;95.22;100264.31;85921;1297;79128;-58
2022/10/24 05:56:06;;;;;;;;;;;;;;;11.28;95.12;100264.43;85926;1294;100110;-58
2022/10/24 05:58:13;;;;;;;;;;;;;;;11.30;95.10;100265.10;85905;1294;87576;-58
2022/10/24 06:00:23;;;;;;;;;;;;;;;11.31;95.16;100264.38;85887;1301;95190;-59
2022/10/24 06:02:30;;;;;;;;;;;;;;;11.33;95.09;100265.17;85898;1294;82904;-59
2022/10/24 06:04:37;;;;;;;;;;;;;;;11.36;95.07;100269.11;85880;1294;82509;-59
2022/10/24 06:06:45;;;;;;;;;;;;;;;11.38;94.95;100271.50;85859;1294;98881;-58
2022/10/24 06:08:54;;;;;;;;;;;;;;;11.42;95.02;100279.55;85865;1294;89635;-59
2022/10/24 06:11:08;;;;;;;;;;;;;;;11.45;94.96;100282.15;85855;1294;95135;-58
2022/10/24 06:13:17;;;;;;;;;;;;;;;11.47;94.99;100277.75;85846;1294;82180;-59
2022/10/24 06:15:24;;;;;;;;;;;;;;;11.49;94.96;100282.05;85855;1301;82335;-57
2022/10/24 06:17:31;;;;;;;;;;;;;;;11.50;94.88;100283.66;85870;1294;99654;-58
2022/10/24 06:19:39;;;;;;;;;;;;;;;11.49;94.81;100285.09;85840;1301;88323;-59
2022/10/24 06:21:47;;;;;;;;;;;;;;;11.50;94.87;100283.70;85861;1294;95335;-59
2022/10/24 06:23:54;;;;;;;;;;;;;;;11.52;94.89;100278.24;85896;1294;79445;-59
2022/10/24 06:26:01;;;;;;;;;;;;;;;11.52;94.79;100271.52;85875;1294;82633;-58
2022/10/24 06:28:10;;;;;;;;;;;;;;;11.52;94.69;100268.80;85892;1301;98865;-58
2022/10/24 06:30:18;;;;;;;;;;;;;;;11.52;94.53;100271.67;85900;1301;88246;-58
2022/10/24 06:32:25;;;;;;;;;;;;;;;11.54;94.49;100269.77;85918;1301;95344;-58
2022/10/24 06:34:33;;;;;;;;;;;;;;;11.54;94.42;100259.00;85920;1302;80925;-58
2022/10/24 06:36:44;;;;;;;;;;;;;;;11.56;94.31;100255.48;85938;1294;82956;-58
2022/10/24 06:38:51;;;;;;;;;;;;;;;11.62;94.36;100253.26;85932;1295;98785;-58
2022/10/24 06:41:07;;;;;;;;;;;;;;;11.63;94.24;100253.84;85921;1295;86830;-58
2022/10/24 06:43:15;;;;;;;;;;;;;;;11.62;94.18;100251.10;85912;1293;95032;-59
2022/10/24 06:45:22;;;;;;;;;;;;;;;11.59;94.07;100259.82;85923;1294;83031;-58
2022/10/24 06:47:29;;;;;;;;;;;;;;;11.63;93.99;100274.58;85907;1294;81842;-58
2022/10/24 06:49:36;;;;;;;;;;;;;;;11.60;93.99;100284.30;85881;1294;98461;-58
2022/10/24 06:51:44;;;;;;;;;;;;;;;11.59;93.86;100289.58;85900;1294;90519;-58
2022/10/24 06:53:51;;;;;;;;;;;;;;;11.61;93.79;100294.30;85851;1295;93705;-57
2022/10/24 06:56:05;;;;;;;;;;;;;;;11.62;93.80;100294.75;85884;1294;82295;-58
2022/10/24 06:58:12;;;;;;;;;;;;;;;11.63;93.69;100300.20;85877;1301;83255;-59
2022/10/24 07:00:25;;;;;;;;;;;;;;;11.65;93.80;100307.39;85906;1300;100072;-58
2022/10/24 07:02:32;;;;;;;;;;;;;;;11.62;93.78;100320.52;85896;1301;86795;-58
2022/10/24 07:04:41;;;;;;;;;;;;;;;11.62;93.69;100322.02;85843;1294;94794;-58
2022/10/24 07:06:48;;;;;;;;;;;;;;;11.62;93.64;100315.86;85876;1300;79965;-58
2022/10/24 07:08:56;;;;;;;;;;;;;;;11.61;93.61;100318.10;85865;1294;80700;-58
2022/10/24 07:11:04;;;;;;;;;;;;;;;11.63;93.64;100333.90;85854;1294;100097;-59
2022/10/24 07:13:11;;;;;;;;;;;;;;;11.66;93.65;100339.86;85875;1300;88391;-59
2022/10/24 07:15:19;;;;;;;;;;;;;;;11.69;93.61;100349.53;85854;1302;93266;-59
2022/10/24 07:17:26;;;;;;;;;;;;;;;11.70;93.53;100352.30;85880;1294;81916;-58
2022/10/24 07:19:35;;;;;;;;;;;;;;;11.68;93.43;100349.46;85905;1301;79964;-58
2022/10/24 07:21:42;;;;;;;;;;;;;;;11.71;93.40;100350.96;85920;1294;100052;-58
2022/10/24 07:23:53;;;;;;;;;;;;;;;11.75;93.33;100340.17;85872;1294;88759;-59
2022/10/24 07:26:05;;;;;;;;;;;;;;;11.79;93.39;100339.10;85924;1301;94302;-58
2022/10/24 07:28:19;;;;;;;;;;;;;;;11.81;93.28;100343.46;85898;1294;82494;-58
2022/10/24 07:30:27;;;;;;;;;;;;;;;11.79;93.32;100348.77;85932;1294;82069;-59
2022/10/24 07:32:37;;;;;;;;;;;;;;;11.82;93.33;100337.46;85916;1294;97654;-59
2022/10/24 07:34:46;;;;;;;;;;;;;;;11.82;93.25;100317.94;85938;1290;88753;-58
2022/10/24 07:36:56;;;;;;;;;;;;;;;11.79;93.27;100308.75;85876;1294;95376;-59
2022/10/24 07:39:06;;;;;;;;;;;;;;;11.80;93.21;100309.72;85859;1294;81560;-58
2022/10/24 07:41:14;;;;;;;;;;;;;;;11.76;93.14;100300.13;85888;1294;82815;-58
2022/10/24 07:43:22;;;;;;;;;;;;;;;11.75;93.07;100297.38;85885;1294;99248;-58
2022/10/24 07:45:32;;;;;;;;;;;;;;;11.77;92.99;100294.99;85857;1301;89045;-60
2022/10/24 07:47:42;;;;;;;;;;;;;;;11.76;93.06;100302.79;85886;1300;95000;-59
2022/10/24 07:49:51;;;;;;;;;;;;;;;11.80;93.08;100306.97;85864;1294;80203;-57
2022/10/24 07:51:58;;;;;;;;;;;;;;;11.86;93.07;100302.29;85911;1301;82667;-57
2022/10/24 07:54:08;;;;;;;;;;;;;;;11.90;93.10;100302.86;85881;1294;97506;-58
2022/10/24 07:56:17;;;;;;;;;;;;;;;11.97;93.10;100308.44;85896;1295;86982;-60
2022/10/24 07:58:25;;;;;;;;;;;;;;;12.05;93.29;100304.64;85928;1301;95094;-58
2022/10/24 08:00:32;;;;;;;;;;;;;;;12.12;93.07;100299.71;85958;1294;81969;-58
2022/10/24 08:02:39;;;;;;;;;;;;;;;12.17;93.25;100294.83;85899;1295;82520;-58
2022/10/24 08:04:46;;;;;;;;;;;;;;;12.24;93.08;100293.11;85910;1294;98267;-59
2022/10/24 08:06:53;;;;;;;;;;;;;;;12.20;92.70;100291.00;85878;1294;88962;-58
2022/10/24 08:09:01;;;;;;;;;;;;;;;12.26;92.75;100286.82;85878;1301;95105;-58
2022/10/24 08:11:12;;;;;;;;;;;;;;;12.31;92.80;100282.54;85886;1295;81430;-58
2022/10/24 08:13:18;;;;;;;;;;;;;;;12.33;92.72;100278.92;85877;1294;79516;-59
2022/10/24 08:15:26;;;;;;;;;;;;;;;12.36;92.64;100276.31;85864;1294;99504;-58
2022/10/24 08:17:35;;;;;;;;;;;;;;;12.40;92.66;100280.57;85886;1294;86987;-58
2022/10/24 08:19:43;;;;;;;;;;;;;;;12.44;92.49;100281.50;85854;1294;95562;-59
2022/10/24 08:21:52;;;;;;;;;;;;;;;12.45;92.48;100278.46;85868;1298;81078;-58
2022/10/24 08:23:59;;;;;;;;;;;;;;;12.50;92.55;100276.98;85908;1294;80179;-58
2022/10/24 08:26:08;;;;;;;;;;;;;;;12.54;92.44;100283.27;85901;1294;99613;-58
2022/10/24 08:28:18;;;;;;;;;;;;;;;12.57;92.48;100271.53;85900;1287;88960;-58
2022/10/24 08:30:25;;;;;;;;;;;;;;;12.63;92.47;100269.63;85912;1294;94584;-59
2022/10/24 08:32:34;;;;;;;;;;;;;;;12.69;92.27;100268.89;85883;1301;81110;-59
2022/10/24 08:34:42;;;;;;;;;;;;;;;12.69;92.06;100267.70;85894;1295;81912;-59
2022/10/24 08:36:50;;;;;;;;;;;;;;;12.66;92.25;100269.71;85907;1294;97866;-59
2022/10/24 08:38:58;;;;;;;;;;;;;;;12.73;91.97;100272.02;85878;1295;89542;-58
2022/10/24 08:41:10;;;;;;;;;;;;;;;12.76;92.09;100273.31;85874;1300;95093;-58
2022/10/24 08:43:18;;;;;;;;;;;;;;;12.79;92.01;100276.54;85847;1295;80881;-59
2022/10/24 08:45:34;;;;;;;;;;;;;;;12.86;92.12;100281.09;85900;1301;81480;-59
2022/10/24 08:47:46;;;;;;;;;;;;;;;13.04;92.23;100289.96;85873;1300;97920;-59
2022/10/24 08:49:55;;;;;;;;;;;;;;;13.21;92.22;100282.98;85899;1294;88813;-59
2022/10/24 08:52:13;;;;;;;;;;;;;;;13.33;92.09;100280.40;85892;1294;93248;-59
2022/10/24 08:54:24;;;;;;;;;;;;;;;13.47;92.26;100274.60;85862;1301;82288;-59
2022/10/24 08:56:34;;;;;;;;;;;;;;;13.64;92.08;100275.32;85897;1294;82341;-59
2022/10/24 08:58:44;;;;;;;;;;;;;;;13.78;92.17;100274.49;85868;1294;100126;-59
2022/10/24 09:00:53;;;;;;;;;;;;;;;13.97;91.77;100271.55;85877;1294;88431;-59
2022/10/24 09:03:09;;;;;;;;;;;;;;;14.18;91.39;100271.13;85872;1301;92955;-59
2022/10/24 09:05:25;;;;;;;;;;;;;;;14.40;91.35;100273.61;85910;1300;81786;-59
2022/10/24 09:07:33;;;;;;;;;;;;;;;14.49;90.73;100278.11;85931;1294;80961;-59
2022/10/24 09:09:45;;;;;;;;;;;;;;;14.65;90.14;100273.13;85881;1301;99874;-59
2022/10/24 09:11:55;;;;;;;;;;;;;;;14.81;90.25;100276.50;85897;1295;89202;-59
2022/10/24 09:14:12;;;;;;;;;;;;;;;14.95;89.72;100270.50;85871;1294;94317;-59
2022/10/24 09:16:22;;;;;;;;;;;;;;;14.92;89.17;100272.15;85884;1293;80288;-64
2022/10/24 09:18:36;;;;;;;;;;;;;;;14.93;89.34;100269.96;85876;1301;80277;-65
2022/10/24 09:20:46;;;;;;;;;;;;;;;15.07;89.42;100267.05;85865;1301;97269;-59
2022/10/24 09:22:55;;;;;;;;;;;;;;;15.17;89.06;100268.27;85931;1301;88626;-59
2022/10/24 09:25:05;;;;;;;;;;;;;;;15.26;88.86;100264.63;85874;1301;95036;-59
2022/10/24 09:27:16;;;;;;;;;;;;;;;15.32;88.16;100262.61;85910;1299;80145;-59
2022/10/24 09:29:23;;;;;;;;;;;;;;;15.42;88.17;100264.05;85936;1294;81357;-59
2022/10/24 09:31:34;;;;;;;;;;;;;;;15.45;87.98;100264.72;85927;1301;97759;-58
2022/10/24 09:33:42;;;;;;;;;;;;;;;15.50;87.65;100266.70;85910;1300;86068;-58
2022/10/24 09:35:50;;;;;;;;;;;;;;;15.58;87.73;100267.50;85895;1301;94282;-59
2022/10/24 09:38:19;;;;;;;;;;;;;;;15.58;87.43;100266.45;85941;1294;80078;-59
2022/10/24 09:40:29;;;;;;;;;;;;;;;15.53;87.28;100268.59;85879;1294;82287;-60
2022/10/24 09:42:39;;;;;;;;;;;;;;;15.51;87.22;100262.09;85873;1287;99274;-59
2022/10/24 09:44:46;;;;;;;;;;;;;;;15.50;87.10;100263.14;85874;1301;87220;-59
2022/10/24 09:46:53;;;;;;;;;;;;;;;15.44;86.97;100258.73;85870;1301;93913;-59
2022/10/24 09:49:03;;;;;;;;;;;;;;;15.40;86.89;100261.23;85876;1287;80646;-59
2022/10/24 09:51:17;;;;;;;;;;;;;;;15.36;86.70;100258.55;85866;1301;79895;-59
2022/10/24 09:53:30;;;;;;;;;;;;;;;15.38;86.89;100260.95;85848;1294;99847;-60
2022/10/24 09:55:44;;;;;;;;;;;;;;;15.39;86.80;100260.48;85883;1300;88970;-59
2022/10/24 09:57:55;;;;;;;;;;;;;;;15.43;86.91;100259.98;85872;1294;95571;-59
2022/10/24 10:00:06;;;;;;;;;;;;;;;15.49;86.95;100261.93;85881;1301;81230;-59
2022/10/24 10:02:34;;;;;;;;;;;;;;;15.56;86.77;100260.94;85921;1300;83136;-60
2022/10/24 10:04:42;;;;;;;;;;;;;;;15.55;86.57;100265.09;85850;1287;98202;-60
2022/10/24 10:06:50;;;;;;;;;;;;;;;15.56;86.65;100262.20;85889;1301;88341;-59
2022/10/24 10:08:58;;;;;;;;;;;;;;;15.66;86.62;100256.77;85857;1301;95197;-59
2022/10/24 10:11:08;;;;;;;;;;;;;;;15.73;86.44;100249.91;85876;1301;81906;-59
2022/10/24 10:13:24;;;;;;;;;;;;;;;15.78;86.38;100253.79;85885;1301;80912;-59
2022/10/24 10:15:34;;;;;;;;;;;;;;;15.84;86.07;100255.82;85851;1294;98070;-59
2022/10/24 10:17:49;;;;;;;;;;;;;;;15.82;86.01;100257.35;85878;1292;89354;-59
2022/10/24 10:19:58;;;;;;;;;;;;;;;15.78;85.92;100253.62;85866;1295;92957;-60
2022/10/24 10:22:19;;;;;;;;;;;;;;;15.81;85.95;100248.05;85866;1300;80520;-59
2022/10/24 10:24:39;;;;;;;;;;;;;;;15.82;85.75;100249.05;85928;1301;82703;-59
2022/10/24 10:26:47;;;;;;;;;;;;;;;15.86;85.58;100246.73;85877;1295;98128;-58
2022/10/24 10:28:57;;;;;;;;;;;;;;;15.92;85.33;100245.38;85899;1294;87142;-60
2022/10/24 10:31:05;;;;;;;;;;;;;;;15.93;85.37;100246.61;85916;1293;94183;-60
2022/10/24 10:33:19;;;;;;;;;;;;;;;15.88;85.30;100248.43;85906;1294;80223;-60
2022/10/24 10:35:31;;;;;;;;;;;;;;;15.90;85.16;100247.45;85908;1294;82531;-60
2022/10/24 10:37:42;;;;;;;;;;;;;;;15.95;85.18;100248.52;85928;1294;97821;-59
2022/10/24 10:40:11;;;;;;;;;;;;;;;16.02;85.05;100245.77;85904;1294;89556;-59
2022/10/24 10:42:24;;;;;;;;;;;;;;;16.04;84.97;100241.29;85868;1298;94285;-59
2022/10/24 10:44:45;;;;;;;;;;;;;;;16.08;85.03;100239.85;85867;1300;79867;-58
2022/10/24 10:46:59;;;;;;;;;;;;;;;16.11;84.84;100238.14;85894;1291;82030;-59
2022/10/24 10:49:11;;;;;;;;;;;;;;;16.14;84.71;100241.03;85867;1291;100041;-59
2022/10/24 10:51:28;;;;;;;;;;;;;;;16.04;84.38;100245.77;85894;1294;86735;-59
2022/10/24 10:53:41;;;;;;;;;;;;;;;15.99;84.42;100246.55;85885;1300;95490;-59
2022/10/24 10:55:53;;;;;;;;;;;;;;;15.95;84.45;100249.07;85861;1301;80592;-60
2022/10/24 10:58:07;;;;;;;;;;;;;;;15.96;84.54;100255.25;85893;1301;80111;-59
2022/10/24 11:00:19;;;;;;;;;;;;;;;15.96;84.54;100254.38;85889;1300;98290;-58
2022/10/24 11:02:44;;;;;;;;;;;;;;;16.03;84.72;100251.41;85901;1301;88418;-60
2022/10/24 11:04:58;;;;;;;;;;;;;;;16.10;84.90;100252.20;85879;1295;94407;-60
2022/10/24 11:07:12;;;;;;;;;;;;;;;16.19;84.93;100251.50;85885;1294;79933;-59